Time;durP1;ratioP1;P1;durP2;ratioP2;P2;SDS_P1;SDS_P2;PMS_P1;PMS_P2;Temp;Humidity;BMP_temperature;BMP_pressure;BME280_temperature;BME280_humidity;BME280_pressure;Samples;Min_cycle;Max_cycle;Signal;HPM_P1;HPM_P2
2022/10/13 00:02:11;;;;;;;3.22;1.83;;;20.10;78.40;;;;;;4987537;28;45125;-76
2022/10/13 00:04:38;;;;;;;2.53;1.70;;;20.10;78.40;;;;;;4987452;28;45147;-76
2022/10/13 00:07:05;;;;;;;2.15;1.65;;;20.10;78.50;;;;;;4987303;28;45424;-76
2022/10/13 00:09:34;;;;;;;3.20;1.63;;;20.20;78.40;;;;;;4987317;28;45337;-76
2022/10/13 00:12:00;;;;;;;2.80;2.00;;;20.10;78.30;;;;;;4987081;28;45690;-76
2022/10/13 00:14:27;;;;;;;2.08;1.50;;;20.10;78.30;;;;;;4987370;28;45082;-76
2022/10/13 00:16:54;;;;;;;2.92;2.00;;;20.10;78.40;;;;;;4987679;28;45201;-76
2022/10/13 00:19:21;;;;;;;2.10;1.50;;;20.10;78.30;;;;;;4986952;28;46639;-76
2022/10/13 00:21:47;;;;;;;2.75;1.60;;;20.10;78.40;;;;;;4986938;28;45427;-76
2022/10/13 00:24:14;;;;;;;3.58;1.83;;;20.10;78.40;;;;;;4987157;28;45224;-76
2022/10/13 00:26:42;;;;;;;2.03;1.50;;;20.10;78.40;;;;;;4987137;28;45265;-76
2022/10/13 00:29:09;;;;;;;2.53;1.80;;;20.10;78.40;;;;;;4986887;28;46957;-76
2022/10/13 00:31:35;;;;;;;3.17;1.60;;;20.10;78.40;;;;;;4986039;28;45155;-75
2022/10/13 00:34:02;;;;;;;2.22;1.70;;;20.10;78.30;;;;;;4986828;28;45200;-76
2022/10/13 00:36:30;;;;;;;2.08;1.70;;;20.10;78.30;;;;;;4986957;28;45190;-76
2022/10/13 00:38:57;;;;;;;2.85;1.70;;;20.10;78.40;;;;;;4986731;28;47763;-76
2022/10/13 00:41:24;;;;;;;2.38;1.50;;;20.10;78.40;;;;;;4989726;28;46901;-76
2022/10/13 00:43:59;;;;;;;2.88;1.52;;;20.10;78.30;;;;;;4987321;28;45125;-76
2022/10/13 00:46:28;;;;;;;2.53;1.30;;;20.10;78.30;;;;;;4986973;28;45197;-76
2022/10/13 00:48:56;;;;;;;2.42;1.52;;;20.10;78.50;;;;;;4986658;28;47302;-76
2022/10/13 00:51:27;;;;;;;2.30;1.50;;;20.10;78.30;;;;;;4986501;28;45140;-76
2022/10/13 00:53:55;;;;;;;1.60;1.50;;;20.10;78.40;;;;;;4983796;28;45227;-76
2022/10/13 00:56:25;;;;;;;2.45;1.45;;;20.10;78.30;;;;;;4986675;28;45144;-76
2022/10/13 00:58:54;;;;;;;3.13;1.90;;;20.10;78.40;;;;;;4986506;28;46465;-76
2022/10/13 01:01:21;;;;;;;2.40;1.40;;;20.10;78.40;;;;;;4986694;28;45296;-76
2022/10/13 01:03:48;;;;;;;2.10;1.50;;;20.10;78.40;;;;;;4986716;28;45312;-76
2022/10/13 01:06:16;;;;;;;2.28;1.60;;;20.10;78.30;;;;;;4986691;28;45116;-76
2022/10/13 01:08:43;;;;;;;2.17;1.45;;;20.10;78.40;;;;;;4986206;28;46304;-76
2022/10/13 01:11:40;;;;;;;1.88;1.38;;;20.10;78.30;;;;;;4986442;28;45197;-76
2022/10/13 01:14:16;;;;;;;1.75;1.30;;;20.10;78.30;;;;;;4979646;28;45370;-76
2022/10/13 01:16:51;;;;;;;3.38;1.60;;;20.10;78.30;;;;;;4986789;28;45231;-75
2022/10/13 01:19:37;;;;;;;2.17;1.50;;;20.10;78.30;;;;;;4986592;28;46366;-76
2022/10/13 01:22:14;;;;;;;2.83;1.60;;;20.10;78.20;;;;;;4986073;28;45165;-76
2022/10/13 01:24:51;;;;;;;2.47;1.80;;;20.10;78.10;;;;;;4985758;28;45212;-76
2022/10/13 01:27:39;;;;;;;2.33;1.52;;;20.10;78.30;;;;;;4983564;28;45193;-76
2022/10/13 01:30:14;;;;;;;2.08;1.48;;;20.10;78.20;;;;;;4986014;28;46808;-76
2022/10/13 01:33:19;;;;;;;1.92;1.35;;;20.10;78.30;;;;;;4988315;28;45302;-76
2022/10/13 01:36:00;;;;;;;2.65;1.45;;;20.10;78.00;;;;;;4926951;28;45225;-76
2022/10/13 01:38:36;;;;;;;1.90;1.10;;;20.10;78.00;;;;;;4926352;28;45164;-76
2022/10/13 01:41:09;;;;;;;1.58;1.33;;;20.10;78.30;;;;;;4964224;28;46997;-76
2022/10/13 01:43:40;;;;;;;2.30;1.75;;;20.10;78.00;;;;;;4986675;28;45069;-76
2022/10/13 01:46:12;;;;;;;2.10;1.60;;;20.10;78.20;;;;;;4989811;28;45150;-76
2022/10/13 01:48:40;;;;;;;3.72;1.60;;;20.10;78.20;;;;;;4990091;28;45128;-76
2022/10/13 01:51:09;;;;;;;3.00;1.30;;;20.10;78.30;;;;;;4989604;28;47293;-76
2022/10/13 01:53:36;;;;;;;1.88;1.20;;;20.10;78.30;;;;;;4989891;28;45114;-76
2022/10/13 01:56:03;;;;;;;1.90;1.42;;;20.20;78.40;;;;;;4989450;28;45322;-76
2022/10/13 01:58:32;;;;;;;1.83;1.50;;;20.20;78.30;;;;;;4990132;28;45245;-76
2022/10/13 02:01:10;;;;;;;2.30;1.50;;;20.10;78.40;;;;;;4989284;28;45240;-76
2022/10/13 02:03:47;;;;;;;2.55;1.60;;;20.10;78.30;;;;;;4989048;28;45141;-76
2022/10/13 02:09:43;;;;;;;3.97;1.35;;;20.10;78.30;;;;;;4986486;28;45231;-76
2022/10/13 02:15:37;;;;;;;2.75;1.55;;;20.10;78.30;;;;;;4986105;28;45367;-76
2022/10/13 02:18:05;;;;;;;1.48;1.30;;;20.10;77.70;;;;;;4989268;28;45195;-76
2022/10/13 02:20:34;;;;;;;2.80;1.70;;;20.10;77.70;;;;;;4989247;28;45313;-76
2022/10/13 02:23:07;;;;;;;1.80;1.17;;;20.10;77.60;;;;;;4988981;28;46730;-76
2022/10/13 02:25:34;;;;;;;1.95;1.10;;;20.10;77.60;;;;;;4991458;28;45309;-76
2022/10/13 02:28:01;;;;;;;2.10;1.60;;;20.10;77.50;;;;;;4989439;28;45215;-76
2022/10/13 02:33:50;;;;;;;1.77;1.33;;;20.10;77.60;;;;;;4985852;28;45152;-76
2022/10/13 02:36:18;;;;;;;2.60;1.40;;;20.10;77.30;;;;;;4988811;28;45223;-76
2022/10/13 02:38:45;;;;;;;2.22;1.30;;;20.10;77.30;;;;;;4988696;28;45329;-76
2022/10/13 02:41:12;;;;;;;2.67;1.60;;;20.10;77.60;;;;;;4988812;28;45568;-76
2022/10/13 02:43:38;;;;;;;2.00;1.25;;;20.10;77.50;;;;;;4988864;28;45243;-76
2022/10/13 02:46:05;;;;;;;1.23;1.13;;;20.10;77.70;;;;;;4988672;28;45140;-76
2022/10/13 02:48:32;;;;;;;2.15;1.30;;;20.10;77.80;;;;;;4988902;28;45073;-76
2022/10/13 02:50:59;;;;;;;2.53;1.40;;;20.10;77.70;;;;;;4988782;28;45554;-76
2022/10/13 02:53:27;;;;;;;3.05;1.73;;;20.10;77.80;;;;;;4987956;28;47591;-76
2022/10/13 02:55:54;;;;;;;2.08;1.33;;;20.10;77.70;;;;;;4988387;28;45128;-76
2022/10/13 02:58:21;;;;;;;1.88;1.50;;;20.10;77.80;;;;;;4988661;28;45199;-76
2022/10/13 03:00:47;;;;;;;1.42;1.33;;;20.10;77.90;;;;;;4988987;28;45537;-76
2022/10/13 03:06:36;;;;;;;1.42;1.20;;;20.10;77.90;;;;;;4985435;28;45141;-76
2022/10/13 03:09:04;;;;;;;2.10;1.35;;;20.10;77.90;;;;;;4988625;28;45230;-76
2022/10/13 03:11:31;;;;;;;1.65;1.42;;;20.10;77.70;;;;;;4988424;28;45350;-76
2022/10/13 03:13:58;;;;;;;1.67;1.48;;;20.10;77.50;;;;;;4988593;28;46744;-76
2022/10/13 03:16:24;;;;;;;1.92;1.60;;;20.10;77.30;;;;;;4990044;28;45609;-76
2022/10/13 03:18:51;;;;;;;2.28;1.35;;;20.10;77.40;;;;;;4988876;28;45163;-76
2022/10/13 03:21:18;;;;;;;4.05;1.30;;;20.10;77.40;;;;;;4988562;28;45156;-76
2022/10/13 03:23:45;;;;;;;2.17;1.38;;;20.10;77.40;;;;;;4987563;28;45683;-76
2022/10/13 03:26:14;;;;;;;3.05;1.48;;;20.10;77.30;;;;;;4988077;28;45149;-76
2022/10/13 03:28:41;;;;;;;2.75;1.52;;;20.10;77.30;;;;;;4988415;28;45232;-76
2022/10/13 03:31:10;;;;;;;2.72;1.58;;;20.10;77.20;;;;;;4988400;28;45577;-76
2022/10/13 03:36:59;;;;;;;2.20;1.08;;;20.10;77.20;;;;;;4984956;28;45116;-76
2022/10/13 03:39:25;;;;;;;1.52;1.20;;;20.10;77.30;;;;;;4987845;28;45198;-76
2022/10/13 03:41:53;;;;;;;1.75;1.15;;;20.10;77.30;;;;;;4988601;28;45262;-76
2022/10/13 03:44:20;;;;;;;2.08;1.50;;;20.10;77.40;;;;;;4987696;28;46904;-76
2022/10/13 03:46:47;;;;;;;1.48;1.30;;;20.10;77.40;;;;;;4988095;28;45274;-76
2022/10/13 03:49:14;;;;;;;2.75;1.55;;;20.10;77.50;;;;;;4987998;28;45324;-76
2022/10/13 03:51:41;;;;;;;2.67;1.33;;;20.10;77.50;;;;;;4987947;28;45196;-76
2022/10/13 03:54:09;;;;;;;2.25;1.27;;;20.10;77.50;;;;;;4987362;28;46893;-76
2022/10/13 04:00:00;;;;;;;1.90;1.30;;;20.10;77.30;;;;;;4984742;28;45292;-76
2022/10/13 04:02:27;;;;;;;1.92;1.30;;;20.10;77.40;;;;;;4987931;28;45565;-76
2022/10/13 04:04:54;;;;;;;1.50;1.15;;;20.20;77.50;;;;;;4987340;28;47376;-76
2022/10/13 04:07:20;;;;;;;2.20;1.48;;;20.10;77.20;;;;;;4987316;28;45470;-76
2022/10/13 04:09:47;;;;;;;3.05;1.55;;;20.10;77.30;;;;;;4989959;28;45148;-76
2022/10/13 04:12:14;;;;;;;2.05;1.45;;;20.10;77.10;;;;;;4987827;28;45390;-76
2022/10/13 04:18:04;;;;;;;2.58;1.42;;;20.10;77.00;;;;;;4984274;28;45200;-76
2022/10/13 04:20:31;;;;;;;2.65;1.50;;;20.10;76.60;;;;;;4987454;28;45395;-76
2022/10/13 04:22:58;;;;;;;1.67;1.40;;;20.10;76.90;;;;;;4987422;28;45460;-76
2022/10/13 04:25:25;;;;;;;3.30;1.77;;;20.10;76.90;;;;;;4986806;28;45675;-77
2022/10/13 04:31:03;;;;;;;1.60;1.38;;;20.00;77.00;;;;;;4975377;28;45509;-76
2022/10/13 04:33:31;;;;;;;3.40;1.42;;;20.10;81.70;;;;;;4987210;28;45526;-76
2022/10/13 04:35:58;;;;;;;2.33;1.30;;;19.90;79.60;;;;;;4986626;28;47112;-76
2022/10/13 04:41:47;;;;;;;2.20;1.50;;;20.10;77.00;;;;;;4984215;28;45338;-76
2022/10/13 04:44:14;;;;;;;3.40;1.45;;;20.10;77.10;;;;;;4986871;28;45287;-76
2022/10/13 04:46:40;;;;;;;1.45;1.10;;;20.10;77.10;;;;;;4986739;28;46578;-76
2022/10/13 04:49:26;;;;;;;2.08;1.20;;;20.10;77.00;;;;;;4987182;28;45073;-76
2022/10/13 04:51:52;;;;;;;1.65;1.20;;;20.10;77.00;;;;;;4987236;28;45128;-76
2022/10/13 04:54:19;;;;;;;2.08;1.50;;;20.90;80.10;;;;;;4986779;28;45141;-76
2022/10/13 04:56:46;;;;;;;3.72;1.50;;;18.40;77.90;;;;;;4986590;28;45394;-76
2022/10/13 04:59:13;;;;;;;3.13;1.67;;;20.10;76.60;;;;;;4986457;28;46118;-76
2022/10/13 05:01:40;;;;;;;2.10;1.60;;;20.20;76.70;;;;;;4986772;28;45262;-76
2022/10/13 05:04:10;;;;;;;2.15;1.60;;;20.10;76.30;;;;;;4987179;28;45412;-76
2022/10/13 05:06:39;;;;;;;4.13;1.60;;;20.00;77.00;;;;;;4986162;28;48107;-76
2022/10/13 05:09:05;;;;;;;2.40;1.50;;;20.00;75.90;;;;;;4986475;28;46346;-76
2022/10/13 05:11:32;;;;;;;2.70;1.67;;;20.10;76.40;;;;;;4986917;28;45099;-76
2022/10/13 05:14:01;;;;;;;2.95;1.70;;;20.10;77.10;;;;;;4986736;28;45117;-76
2022/10/13 05:16:29;;;;;;;3.50;1.50;;;20.00;76.30;;;;;;4986100;28;47975;-76
2022/10/13 05:18:56;;;;;;;2.03;1.52;;;20.10;76.40;;;;;;4986166;28;45427;-76
2022/10/13 05:21:26;;;;;;;3.00;1.60;;;20.00;76.30;;;;;;4986919;28;45138;-76
2022/10/13 05:23:54;;;;;;;2.25;1.33;;;20.00;76.50;;;;;;4985815;28;45230;-77
2022/10/13 05:26:22;;;;;;;2.80;1.50;;;20.00;76.60;;;;;;4986437;28;47363;-76
2022/10/13 05:28:52;;;;;;;2.50;1.40;;;20.00;76.70;;;;;;4985996;28;45957;-76
2022/10/13 05:31:20;;;;;;;2.50;1.50;;;20.10;77.00;;;;;;4986348;28;45374;-76
2022/10/13 05:41:14;;;;;;;;;;;;;;;;;;;;;
2022/10/13 05:43:42;;;;;;;3.90;1.60;;;21.30;78.70;;;;;;4985769;28;66991;-76
2022/10/13 05:46:32;;;;;;;1.95;1.55;;;20.50;79.00;;;;;;4986275;28;45355;-76
2022/10/13 05:52:04;;;;;;;1.95;1.30;;;20.60;81.20;;;;;;4985016;28;45257;-76
2022/10/13 05:54:40;;;;;;;2.22;1.40;;;19.70;79.80;;;;;;4986207;28;45136;-76
2022/10/13 05:57:52;;;;;;;2.35;1.83;;;20.30;78.70;;;;;;4983351;28;45267;-76
2022/10/13 06:00:48;;;;;;;5.05;1.92;;;20.20;77.90;;;;;;4950357;28;47417;-77
2022/10/13 06:06:35;;;;;;;2.83;1.55;;;21.80;79.50;;;;;;4972590;28;45284;-76
2022/10/13 06:18:49;;;;;;;3.17;1.48;;;20.00;77.80;;;;;;4983648;28;45152;-77
2022/10/13 06:24:23;;;;;;;2.08;1.50;;;20.30;78.30;;;;;;4982515;28;46667;-76
2022/10/13 06:26:57;;;;;;;1.88;1.30;;;20.50;77.90;;;;;;4985529;28;45195;-76
2022/10/13 06:29:25;;;;;;;1.88;1.38;;;20.40;79.20;;;;;;4987528;28;45338;-76
2022/10/13 06:35:15;;;;;;;2.30;1.30;;;20.40;77.90;;;;;;4985835;28;45281;-76
2022/10/13 06:37:42;;;;;;;2.03;1.40;;;20.10;77.60;;;;;;4988845;28;45225;-76
2022/10/13 06:40:10;;;;;;;1.77;1.27;;;20.10;77.50;;;;;;4989004;28;45225;-76
2022/10/13 06:42:37;;;;;;;2.13;1.52;;;20.10;77.60;;;;;;4988976;28;45448;-76
2022/10/13 06:48:25;;;;;;;2.15;1.40;;;20.10;77.60;;;;;;4985893;28;45241;-76
2022/10/13 06:50:53;;;;;;;1.42;1.20;;;20.10;77.60;;;;;;4988786;28;45078;-76
2022/10/13 06:53:21;;;;;;;3.40;2.30;;;20.10;77.50;;;;;;4988911;28;45299;-77
2022/10/13 06:55:47;;;;;;;1.83;1.30;;;20.10;77.50;;;;;;4988115;28;45552;-78
2022/10/13 06:58:34;;;;;;;1.45;1.05;;;20.10;77.60;;;;;;4988596;28;45271;-76
2022/10/13 07:54:49;;;;;;;1.60;1.20;;;20.50;79.40;;;;;;4987774;28;45335;-76
2022/10/13 07:57:15;;;;;;;2.08;1.30;;;20.10;80.10;;;;;;4987335;28;45406;-73
2022/10/13 07:59:42;;;;;;;1.60;1.10;;;20.10;79.10;;;;;;4986598;28;47432;-76
2022/10/13 08:02:09;;;;;;;4.80;1.20;;;20.20;77.60;;;;;;4987178;28;46087;-76
2022/10/13 08:04:36;;;;;;;5.15;1.45;;;20.10;77.70;;;;;;4987702;28;45276;-76
2022/10/13 08:07:05;;;;;;;4.18;1.77;;;20.10;77.50;;;;;;4987430;28;45200;-76
2022/10/13 08:09:32;;;;;;;2.75;1.50;;;20.10;77.40;;;;;;4987257;28;47412;-76
2022/10/13 08:11:59;;;;;;;1.67;1.48;;;20.10;77.40;;;;;;4987690;28;45168;-76
2022/10/13 08:14:26;;;;;;;3.03;1.50;;;20.10;77.40;;;;;;4987432;28;45265;-76
2022/10/13 08:16:53;;;;;;;2.30;1.30;;;20.10;77.30;;;;;;4987311;28;45579;-76
2022/10/13 08:19:21;;;;;;;1.92;1.30;;;20.10;77.50;;;;;;4987173;28;45449;-76
2022/10/13 08:21:48;;;;;;;2.55;1.33;;;20.10;77.60;;;;;;4987225;28;45111;-76
2022/10/13 08:24:18;;;;;;;2.47;1.45;;;20.10;77.70;;;;;;4987646;28;45136;-76
2022/10/13 08:26:46;;;;;;;4.20;1.73;;;20.20;77.70;;;;;;4987111;28;45329;-76
2022/10/13 08:29:22;;;;;;;2.90;1.50;;;20.10;77.70;;;;;;4986811;28;46860;-76
2022/10/13 08:31:48;;;;;;;3.38;1.27;;;20.20;77.70;;;;;;4987086;28;45316;-76
2022/10/13 08:34:15;;;;;;;3.17;1.50;;;20.10;77.70;;;;;;4987660;28;45176;-76
2022/10/13 08:36:42;;;;;;;2.25;1.63;;;20.10;77.90;;;;;;4987249;28;45321;-76
2022/10/13 08:39:10;;;;;;;2.15;1.40;;;20.10;77.80;;;;;;4986908;28;46596;-76
2022/10/13 08:41:42;;;;;;;4.75;1.38;;;20.10;78.00;;;;;;4986513;28;45311;-76
2022/10/13 08:44:19;;;;;;;2.80;1.50;;;20.10;79.00;;;;;;4986900;28;45223;-76
2022/10/13 08:46:53;;;;;;;3.08;1.60;;;20.10;78.00;;;;;;4987073;28;45382;-76
2022/10/13 08:49:20;;;;;;;2.38;1.38;;;20.10;78.10;;;;;;4987056;28;48055;-76
2022/10/13 08:51:47;;;;;;;2.28;1.40;;;20.10;78.00;;;;;;4986152;28;45334;-76
2022/10/13 08:54:18;;;;;;;2.80;1.60;;;20.10;78.20;;;;;;4986285;28;45375;-76
2022/10/13 08:56:49;;;;;;;1.83;1.63;;;20.10;78.30;;;;;;4986690;28;45298;-76
2022/10/13 08:59:17;;;;;;;1.80;1.42;;;20.10;79.40;;;;;;4986708;28;48219;-76
2022/10/13 09:01:47;;;;;;;3.53;1.42;;;20.10;78.40;;;;;;4986700;28;45216;-76
2022/10/13 09:04:27;;;;;;;2.92;1.33;;;20.50;78.70;;;;;;4987147;28;45102;-76
2022/10/13 09:06:58;;;;;;;2.05;1.40;;;20.10;79.40;;;;;;4987194;28;45620;-76
2022/10/13 09:12:50;;;;;;;3.30;1.48;;;20.10;78.30;;;;;;4983528;28;45383;-76
2022/10/13 09:15:18;;;;;;;1.95;1.52;;;20.10;78.40;;;;;;4986101;28;45115;-76
2022/10/13 09:18:07;;;;;;;2.92;1.60;;;20.10;78.40;;;;;;4986261;28;45217;-76
2022/10/13 09:24:38;;;;;;;2.08;1.40;;;20.70;78.80;;;;;;4983852;28;45227;-77
2022/10/13 09:34:33;;;;;;;;;;;;;;;;;;;;;
2022/10/13 09:37:57;;;;;;;2.20;1.42;;;20.40;78.60;;;;;;4924724;28;72602;-76
2022/10/13 10:18:00;;;;;;;1.33;1.10;;;20.30;78.50;;;;;;4801721;29;45417;-76
2022/10/13 10:20:49;;;;;;;1.80;1.35;;;20.20;78.50;;;;;;4816955;29;45283;-77
2022/10/13 10:23:56;;;;;;;1.58;1.20;;;20.20;78.40;;;;;;4989238;28;45283;-76
2022/10/13 10:33:41;;;;;;;2.55;1.38;;;20.40;79.50;;;;;;4988336;28;45425;-76
2022/10/13 10:36:28;;;;;;;1.70;1.20;;;20.30;79.50;;;;;;4988831;28;45346;-76
2022/10/13 10:39:20;;;;;;;1.48;1.13;;;20.40;80.40;;;;;;4988220;28;45869;-76
2022/10/13 10:42:02;;;;;;;1.77;1.20;;;20.60;78.80;;;;;;4988263;28;45206;-76
2022/10/13 10:44:42;;;;;;;1.08;0.90;;;20.10;79.40;;;;;;4988844;28;45201;-77
2022/10/13 10:51:10;;;;;;;3.30;0.80;;;20.70;78.90;;;;;;4985639;28;45769;-76
2022/10/13 11:29:08;;;;;;;1.65;1.05;;;20.20;79.30;;;;;;4993857;28;46742;-76
2022/10/13 11:35:36;;;;;;;1.92;0.90;;;20.40;78.60;;;;;;5004679;28;45425;-77
2022/10/13 11:41:52;;;;;;;1.08;0.98;;;20.40;78.70;;;;;;5005179;28;46912;-76
2022/10/13 11:47:52;;;;;;;1.40;0.80;;;18.80;80.20;;;;;;5002813;28;45597;-76
2022/10/13 11:53:51;;;;;;;0.95;0.85;;;20.50;78.70;;;;;;5004452;28;45328;-76
2022/10/13 11:56:20;;;;;;;1.08;0.95;;;20.20;78.40;;;;;;5007363;28;46848;-76
2022/10/13 11:58:47;;;;;;;1.17;0.80;;;20.20;78.40;;;;;;5007390;28;45326;-77
2022/10/13 12:01:38;;;;;;;1.55;1.00;;;20.20;78.70;;;;;;5007442;28;45497;-76
2022/10/13 12:04:25;;;;;;;1.13;0.93;;;20.30;79.70;;;;;;5006226;28;46574;-76
2022/10/13 12:07:00;;;;;;;1.15;0.80;;;20.20;81.50;;;;;;5006811;28;45374;-76
2022/10/13 12:09:40;;;;;;;1.60;1.20;;;20.90;79.80;;;;;;5006895;28;45288;-76
2022/10/13 12:12:15;;;;;;;2.05;1.10;;;22.10;81.80;;;;;;5007342;28;45635;-76
2022/10/13 12:18:21;;;;;;;1.00;0.90;;;20.30;79.20;;;;;;5006741;28;45222;-75
2022/10/13 12:20:52;;;;;;;1.08;0.85;;;20.30;79.20;;;;;;5006151;28;45168;-76
2022/10/13 12:23:19;;;;;;;1.23;0.80;;;20.20;79.20;;;;;;5007367;28;45502;-76
2022/10/13 12:25:55;;;;;;;1.25;0.90;;;20.30;79.20;;;;;;5006799;28;45152;-75
2022/10/13 12:28:22;;;;;;;1.10;0.90;;;20.30;79.40;;;;;;5006268;28;45091;-76
2022/10/13 12:30:53;;;;;;;1.90;0.90;;;20.30;79.50;;;;;;5006343;28;45259;-76
2022/10/13 12:33:25;;;;;;;1.25;0.80;;;20.30;79.50;;;;;;5006358;28;45137;-75
2022/10/13 12:39:16;;;;;;;0.95;0.80;;;20.30;79.70;;;;;;5003567;28;45314;-75
2022/10/13 12:41:47;;;;;;;1.27;0.80;;;20.30;79.80;;;;;;5006040;28;45133;-75
2022/10/13 12:44:17;;;;;;;1.70;0.85;;;20.30;79.90;;;;;;5006519;28;45316;-75
2022/10/13 12:46:46;;;;;;;1.30;0.90;;;20.30;80.00;;;;;;5005428;28;45176;-75
2022/10/13 12:49:15;;;;;;;1.63;0.82;;;20.30;80.00;;;;;;5005350;28;45177;-75
2022/10/13 12:51:44;;;;;;;2.00;0.90;;;20.30;80.00;;;;;;5006600;28;45318;-75
2022/10/13 12:54:19;;;;;;;2.17;1.35;;;20.30;80.10;;;;;;5006549;28;45501;-75
2022/10/13 12:56:48;;;;;;;1.00;0.88;;;20.30;80.10;;;;;;5006055;28;48374;-76
2022/10/13 12:59:16;;;;;;;1.08;0.75;;;20.20;80.10;;;;;;5006426;28;45461;-75
2022/10/13 13:05:29;;;;;;;1.85;1.08;;;20.20;80.30;;;;;;5003415;28;45216;-76
2022/10/13 13:07:56;;;;;;;1.17;0.80;;;20.20;80.30;;;;;;5006236;28;48271;-75
2022/10/13 13:10:23;;;;;;;1.42;0.80;;;20.20;80.30;;;;;;5006306;28;45416;-75
2022/10/13 13:12:53;;;;;;;0.90;0.80;;;20.20;80.30;;;;;;5006093;28;45253;-75
2022/10/13 13:15:35;;;;;;;2.45;1.00;;;20.20;80.30;;;;;;5005708;28;45700;-74
2022/10/13 13:18:40;;;;;;;3.78;1.30;;;20.30;80.70;;;;;;5005927;28;47687;-74
2022/10/13 13:21:09;;;;;;;1.08;0.90;;;20.20;80.50;;;;;;5006091;28;45232;-74
2022/10/13 13:23:35;;;;;;;1.60;0.80;;;20.20;80.90;;;;;;5006445;28;45213;-74
2022/10/13 13:26:06;;;;;;;1.60;0.77;;;20.30;80.50;;;;;;5005892;28;45434;-74
2022/10/13 13:32:12;;;;;;;1.00;0.90;;;20.20;80.50;;;;;;5002864;28;45236;-74
2022/10/13 13:34:39;;;;;;;2.28;0.80;;;20.20;80.60;;;;;;5003280;28;45199;-74
2022/10/13 13:37:06;;;;;;;1.77;1.00;;;20.20;80.60;;;;;;5005398;28;45217;-75
2022/10/13 13:39:33;;;;;;;1.42;1.10;;;20.20;80.60;;;;;;5007902;28;47688;-74
2022/10/13 13:41:59;;;;;;;1.05;0.77;;;20.20;80.60;;;;;;5009049;28;45707;-74
2022/10/13 13:44:26;;;;;;;1.85;1.15;;;20.20;80.70;;;;;;5008933;28;45174;-74
2022/10/13 13:46:53;;;;;;;2.38;0.98;;;20.20;80.70;;;;;;5009240;28;45185;-74
2022/10/13 13:52:43;;;;;;;1.10;1.00;;;20.20;80.70;;;;;;5006257;28;45382;-74
2022/10/13 13:55:10;;;;;;;2.15;1.00;;;20.20;80.80;;;;;;5009541;28;45173;-74
2022/10/13 13:57:36;;;;;;;0.98;0.90;;;20.20;80.80;;;;;;5009336;28;45219;-75
2022/10/13 14:00:04;;;;;;;1.00;0.88;;;20.20;80.80;;;;;;5008671;28;48049;-74
2022/10/13 14:02:30;;;;;;;1.05;0.85;;;20.20;80.80;;;;;;5008764;28;45158;-75
2022/10/13 14:04:58;;;;;;;2.38;1.08;;;20.30;80.80;;;;;;4991554;28;45252;-74
2022/10/13 14:07:25;;;;;;;0.80;0.80;;;20.30;81.00;;;;;;5009137;28;45204;-75
2022/10/13 14:09:53;;;;;;;1.17;0.80;;;20.30;81.10;;;;;;5008759;28;47467;-75
2022/10/13 14:12:20;;;;;;;1.70;1.00;;;20.20;81.00;;;;;;5008862;28;45236;-75
2022/10/13 14:14:47;;;;;;;1.90;1.25;;;20.20;81.00;;;;;;5009432;28;45180;-74
2022/10/13 14:17:14;;;;;;;1.45;1.10;;;20.20;81.20;;;;;;5009183;28;45326;-75
2022/10/13 14:19:42;;;;;;;1.10;1.00;;;20.20;81.60;;;;;;5008119;28;45482;-74
2022/10/13 14:22:08;;;;;;;1.27;0.90;;;20.20;81.30;;;;;;5008616;28;45299;-75
2022/10/13 14:24:35;;;;;;;1.42;1.10;;;20.20;81.30;;;;;;5008856;28;45292;-74
2022/10/13 14:27:03;;;;;;;1.65;1.10;;;20.20;81.50;;;;;;5008641;28;45224;-75
2022/10/13 14:29:30;;;;;;;1.30;1.20;;;20.20;81.50;;;;;;5008407;28;46588;-75
2022/10/13 14:31:57;;;;;;;1.33;1.10;;;20.20;81.80;;;;;;5008459;28;45196;-75
2022/10/13 14:37:46;;;;;;;1.83;1.05;;;20.20;81.90;;;;;;5005726;28;45239;-75
2022/10/13 14:40:12;;;;;;;2.13;1.10;;;20.20;81.90;;;;;;5008092;28;46449;-74
2022/10/13 14:42:41;;;;;;;1.58;1.10;;;20.20;82.10;;;;;;5008346;28;45192;-75
2022/10/13 14:45:08;;;;;;;2.38;1.15;;;20.20;82.10;;;;;;5008433;28;45207;-74
2022/10/13 14:47:35;;;;;;;1.42;1.00;;;20.20;82.20;;;;;;5002440;28;45300;-71
2022/10/13 14:50:02;;;;;;;4.38;1.20;;;20.20;82.50;;;;;;5006333;28;47494;-74
2022/10/13 14:52:29;;;;;;;2.00;1.20;;;20.30;84.50;;;;;;5008297;28;45212;-73
2022/10/13 14:54:55;;;;;;;1.85;1.10;;;20.30;84.30;;;;;;5008643;28;45182;-74
2022/10/13 14:57:22;;;;;;;1.85;1.02;;;20.30;83.20;;;;;;5008227;28;45583;-74
2022/10/13 14:59:50;;;;;;;1.70;1.02;;;20.30;83.20;;;;;;5007991;28;46887;-73
2022/10/13 15:02:17;;;;;;;2.65;1.15;;;20.30;83.40;;;;;;5008096;28;45223;-73
2022/10/13 15:04:44;;;;;;;1.10;1.00;;;20.30;83.60;;;;;;5008118;28;45233;-73
2022/10/13 15:07:10;;;;;;;5.53;1.30;;;20.30;83.80;;;;;;5008319;28;45213;-73
2022/10/13 15:09:37;;;;;;;1.45;0.98;;;20.30;83.80;;;;;;5007973;28;46079;-74
2022/10/13 15:12:05;;;;;;;3.30;1.23;;;20.30;83.90;;;;;;5008040;28;45341;-74
2022/10/13 15:14:31;;;;;;;1.42;1.10;;;20.30;83.90;;;;;;5008078;28;45318;-74
2022/10/13 15:17:00;;;;;;;4.07;1.20;;;20.30;84.00;;;;;;5008068;28;45217;-74
2022/10/13 15:19:26;;;;;;;1.25;1.00;;;20.30;84.20;;;;;;5007108;28;48750;-73
2022/10/13 15:21:53;;;;;;;1.73;1.10;;;20.30;84.00;;;;;;5007634;28;45423;-74
2022/10/13 15:24:20;;;;;;;2.70;1.20;;;20.30;84.20;;;;;;5007923;28;45269;-74
2022/10/13 15:30:10;;;;;;;1.67;1.10;;;20.30;84.50;;;;;;5004604;28;45132;-74
2022/10/13 15:32:38;;;;;;;2.38;1.40;;;20.30;84.50;;;;;;5008056;28;45281;-73
2022/10/13 15:38:27;;;;;;;2.30;1.15;;;20.30;84.60;;;;;;5004730;28;45388;-73
2022/10/13 15:40:59;;;;;;;2.50;1.30;;;20.30;84.60;;;;;;5006755;28;47520;-73
2022/10/13 15:43:26;;;;;;;2.13;1.15;;;20.30;84.70;;;;;;5007522;28;45361;-74
2022/10/13 15:45:55;;;;;;;2.05;1.20;;;20.30;84.90;;;;;;5007375;28;45230;-73
2022/10/13 15:48:23;;;;;;;3.28;1.15;;;20.30;84.90;;;;;;5007717;28;45232;-74
2022/10/13 15:50:50;;;;;;;2.45;1.20;;;20.30;85.00;;;;;;5007107;28;48480;-73
2022/10/13 15:56:38;;;;;;;1.88;1.20;;;20.30;85.20;;;;;;5004251;28;45132;-73
2022/10/13 15:59:05;;;;;;;2.25;1.13;;;20.30;85.10;;;;;;5007245;28;45229;-73
2022/10/13 16:01:32;;;;;;;1.45;1.23;;;20.30;85.30;;;;;;5006800;28;45209;-74
2022/10/13 16:04:00;;;;;;;2.28;1.20;;;20.30;85.30;;;;;;5007129;28;45282;-74
2022/10/13 16:06:27;;;;;;;1.30;1.20;;;20.30;85.60;;;;;;5007132;28;45109;-74
2022/10/13 16:08:54;;;;;;;3.08;1.45;;;20.30;85.60;;;;;;5005877;28;45461;-74
2022/10/13 16:21:28;;;;;;;2.40;1.80;;;20.30;85.40;;;;;;5006195;28;45353;-74
2022/10/13 16:23:55;;;;;;;2.70;1.73;;;20.30;85.60;;;;;;5006524;28;47625;-73
2022/10/13 16:26:22;;;;;;;3.08;1.70;;;20.30;85.60;;;;;;5005962;28;45149;-73
2022/10/13 16:28:49;;;;;;;2.65;1.90;;;20.30;85.40;;;;;;5007108;28;45215;-73
2022/10/13 16:31:16;;;;;;;3.83;1.98;;;20.40;85.60;;;;;;5006774;28;45585;-73
2022/10/13 16:34:09;;;;;;;3.53;1.77;;;20.40;85.90;;;;;;5006201;28;46634;-73
2022/10/13 16:36:37;;;;;;;3.38;1.65;;;20.30;85.80;;;;;;5006634;28;45623;-73
2022/10/13 16:39:04;;;;;;;2.65;1.73;;;20.30;85.80;;;;;;5006835;28;45169;-73
2022/10/13 16:41:31;;;;;;;3.20;1.80;;;20.30;85.90;;;;;;5006916;28;45220;-73
2022/10/13 16:43:57;;;;;;;2.35;1.60;;;20.30;85.90;;;;;;5005689;28;46621;-73
2022/10/13 16:49:46;;;;;;;2.40;1.75;;;20.30;86.10;;;;;;5003419;28;45193;-73
2022/10/13 16:52:15;;;;;;;3.53;1.88;;;20.40;86.20;;;;;;5006279;28;45585;-73
2022/10/13 16:54:42;;;;;;;2.97;1.55;;;20.30;86.10;;;;;;5005543;28;46760;-73
2022/10/13 16:57:09;;;;;;;2.65;1.70;;;20.30;85.90;;;;;;5005719;28;45157;-73
2022/10/13 17:09:42;;;;;;;2.53;1.33;;;20.30;85.70;;;;;;5003044;28;45293;-74
2022/10/13 17:15:31;;;;;;;1.90;1.42;;;20.30;85.70;;;;;;5003229;28;45204;-73
2022/10/13 17:18:00;;;;;;;1.85;1.17;;;20.30;85.80;;;;;;5005653;28;47924;-73
2022/10/13 17:20:27;;;;;;;1.77;1.30;;;20.30;86.00;;;;;;5004962;28;45456;-73
2022/10/13 17:22:54;;;;;;;2.42;1.63;;;20.30;86.00;;;;;;5005644;28;45497;-73
2022/10/13 17:25:41;;;;;;;1.40;1.20;;;20.30;86.10;;;;;;5005721;28;45478;-74
2022/10/13 17:28:08;;;;;;;2.53;1.27;;;20.30;86.10;;;;;;5005339;28;47755;-73
2022/10/13 17:30:37;;;;;;;2.05;1.27;;;20.30;86.20;;;;;;5005373;28;45321;-73
2022/10/13 17:33:04;;;;;;;3.47;1.42;;;20.30;86.30;;;;;;5005640;28;45267;-73
2022/10/13 17:35:30;;;;;;;2.25;1.60;;;20.30;86.40;;;;;;5005631;28;45168;-73
2022/10/13 17:41:21;;;;;;;2.10;1.40;;;20.30;86.60;;;;;;5002783;28;45369;-74
2022/10/13 17:43:48;;;;;;;2.83;1.30;;;20.30;86.80;;;;;;5005868;28;45168;-73
2022/10/13 17:46:17;;;;;;;2.70;1.27;;;20.30;86.70;;;;;;5005638;28;45507;-73
2022/10/13 17:52:06;;;;;;;1.40;1.23;;;20.30;87.10;;;;;;4988238;28;45409;-73
2022/10/13 17:54:32;;;;;;;3.20;1.38;;;20.30;87.00;;;;;;4985566;28;45324;-73
2022/10/13 17:57:00;;;;;;;2.30;1.60;;;20.30;87.00;;;;;;4986243;28;45430;-73
2022/10/13 17:59:27;;;;;;;2.35;1.10;;;20.30;86.90;;;;;;4985444;28;48182;-73